sensor_id;sensor_type;location;lat;lon;timestamp;P1;durP1;ratioP1;P2;durP2;ratioP2
11642;SDS011;5877;50.930;6.918;2023-09-30T01:45:43;6.90;;;3.73;;
11642;SDS011;5877;50.930;6.918;2023-09-30T06:57:45;8.53;;;5.50;;
11642;SDS011;5877;50.930;6.918;2023-09-30T07:02:39;7.00;;;4.50;;
11642;SDS011;5877;50.930;6.918;2023-09-30T07:07:34;7.33;;;4.80;;
11642;SDS011;5877;50.930;6.918;2023-09-30T07:12:26;9.27;;;5.13;;
11642;SDS011;5877;50.930;6.918;2023-09-30T07:17:21;8.23;;;4.83;;
11642;SDS011;5877;50.930;6.918;2023-09-30T07:22:15;8.67;;;4.07;;
11642;SDS011;5877;50.930;6.918;2023-09-30T07:27:21;6.90;;;4.07;;
11642;SDS011;5877;50.930;6.918;2023-09-30T07:32:20;5.40;;;3.83;;
11642;SDS011;5877;50.930;6.918;2023-09-30T07:37:15;9.10;;;4.23;;
11642;SDS011;5877;50.930;6.918;2023-09-30T07:42:09;8.60;;;4.60;;
11642;SDS011;5877;50.930;6.918;2023-09-30T07:47:01;6.57;;;4.03;;
11642;SDS011;5877;50.930;6.918;2023-09-30T07:51:55;8.50;;;5.33;;
11642;SDS011;5877;50.930;6.918;2023-09-30T07:56:48;10.70;;;4.30;;
11642;SDS011;5877;50.930;6.918;2023-09-30T08:01:41;8.40;;;4.93;;
11642;SDS011;5877;50.930;6.918;2023-09-30T08:06:40;10.17;;;5.00;;
11642;SDS011;5877;50.930;6.918;2023-09-30T08:11:33;5.93;;;4.67;;
11642;SDS011;5877;50.930;6.918;2023-09-30T08:16:26;8.23;;;4.90;;
11642;SDS011;5877;50.930;6.918;2023-09-30T08:21:18;8.53;;;4.90;;
11642;SDS011;5877;50.930;6.918;2023-09-30T08:26:11;8.30;;;4.80;;
11642;SDS011;5877;50.930;6.918;2023-09-30T08:31:04;8.50;;;5.53;;
11642;SDS011;5877;50.930;6.918;2023-09-30T08:36:03;11.20;;;5.70;;
11642;SDS011;5877;50.930;6.918;2023-09-30T08:40:59;9.63;;;6.37;;
11642;SDS011;5877;50.930;6.918;2023-09-30T08:45:53;8.43;;;6.20;;
11642;SDS011;5877;50.930;6.918;2023-09-30T08:50:46;9.30;;;6.50;;
11642;SDS011;5877;50.930;6.918;2023-09-30T08:55:41;10.50;;;5.90;;
11642;SDS011;5877;50.930;6.918;2023-09-30T09:00:35;8.13;;;6.13;;
11642;SDS011;5877;50.930;6.918;2023-09-30T09:05:28;9.67;;;6.20;;
11642;SDS011;5877;50.930;6.918;2023-09-30T09:10:23;8.67;;;6.07;;
11642;SDS011;5877;50.930;6.918;2023-09-30T09:15:20;10.40;;;6.27;;
11642;SDS011;5877;50.930;6.918;2023-09-30T09:20:24;8.07;;;6.93;;
11642;SDS011;5877;50.930;6.918;2023-09-30T09:25:17;11.93;;;7.20;;
11642;SDS011;5877;50.930;6.918;2023-09-30T09:30:16;10.87;;;6.53;;
11642;SDS011;5877;50.930;6.918;2023-09-30T09:35:08;10.03;;;7.43;;
11642;SDS011;5877;50.930;6.918;2023-09-30T09:40:02;8.37;;;7.03;;
11642;SDS011;5877;50.930;6.918;2023-09-30T09:44:56;11.00;;;7.67;;
11642;SDS011;5877;50.930;6.918;2023-09-30T09:49:51;10.60;;;6.90;;
11642;SDS011;5877;50.930;6.918;2023-09-30T09:54:46;12.93;;;9.70;;
11642;SDS011;5877;50.930;6.918;2023-09-30T09:59:39;10.27;;;8.30;;
11642;SDS011;5877;50.930;6.918;2023-09-30T10:04:33;11.03;;;8.20;;
11642;SDS011;5877;50.930;6.918;2023-09-30T10:09:25;11.07;;;7.33;;
11642;SDS011;5877;50.930;6.918;2023-09-30T10:14:30;10.40;;;7.70;;
11642;SDS011;5877;50.930;6.918;2023-09-30T10:19:30;11.73;;;8.07;;
11642;SDS011;5877;50.930;6.918;2023-09-30T10:29:16;7.83;;;6.13;;
11642;SDS011;5877;50.930;6.918;2023-09-30T10:39:52;9.07;;;6.33;;
11642;SDS011;5877;50.930;6.918;2023-09-30T10:44:47;8.67;;;5.57;;
11642;SDS011;5877;50.930;6.918;2023-09-30T10:49:39;8.30;;;5.40;;
11642;SDS011;5877;50.930;6.918;2023-09-30T10:54:31;7.30;;;5.30;;
11642;SDS011;5877;50.930;6.918;2023-09-30T10:59:25;8.23;;;4.63;;
11642;SDS011;5877;50.930;6.918;2023-09-30T11:04:19;7.93;;;4.80;;
11642;SDS011;5877;50.930;6.918;2023-09-30T11:09:15;7.37;;;3.07;;
11642;SDS011;5877;50.930;6.918;2023-09-30T11:14:19;6.30;;;3.40;;
11642;SDS011;5877;50.930;6.918;2023-09-30T11:19:20;10.37;;;3.10;;
11642;SDS011;5877;50.930;6.918;2023-09-30T11:24:14;9.33;;;2.90;;
11642;SDS011;5877;50.930;6.918;2023-09-30T11:29:07;5.10;;;3.10;;
11642;SDS011;5877;50.930;6.918;2023-09-30T11:34:03;5.87;;;3.13;;
11642;SDS011;5877;50.930;6.918;2023-09-30T11:38:57;5.00;;;2.20;;
11642;SDS011;5877;50.930;6.918;2023-09-30T11:44:00;5.90;;;2.47;;
11642;SDS011;5877;50.930;6.918;2023-09-30T11:48:58;4.77;;;2.63;;
11642;SDS011;5877;50.930;6.918;2023-09-30T11:53:54;6.43;;;2.80;;
11642;SDS011;5877;50.930;6.918;2023-09-30T11:58:49;4.97;;;2.90;;
11642;SDS011;5877;50.930;6.918;2023-09-30T12:03:42;5.50;;;2.70;;
11642;SDS011;5877;50.930;6.918;2023-09-30T12:08:37;4.63;;;2.47;;
11642;SDS011;5877;50.930;6.918;2023-09-30T12:13:29;8.20;;;2.70;;
11642;SDS011;5877;50.930;6.918;2023-09-30T12:18:22;7.57;;;2.60;;
11642;SDS011;5877;50.930;6.918;2023-09-30T12:23:16;5.73;;;2.40;;
11642;SDS011;5877;50.930;6.918;2023-09-30T12:28:09;3.63;;;2.10;;
11642;SDS011;5877;50.930;6.918;2023-09-30T12:33:02;4.87;;;2.23;;
11642;SDS011;5877;50.930;6.918;2023-09-30T12:37:56;4.93;;;2.27;;
11642;SDS011;5877;50.930;6.918;2023-09-30T12:42:48;4.87;;;2.00;;
11642;SDS011;5877;50.930;6.918;2023-09-30T12:47:41;4.63;;;2.70;;
11642;SDS011;5877;50.930;6.918;2023-09-30T12:52:35;4.50;;;2.67;;
11642;SDS011;5877;50.930;6.918;2023-09-30T12:57:28;6.27;;;2.67;;
11642;SDS011;5877;50.930;6.918;2023-09-30T13:02:21;4.33;;;2.10;;
11642;SDS011;5877;50.930;6.918;2023-09-30T13:07:18;6.43;;;2.40;;
11642;SDS011;5877;50.930;6.918;2023-09-30T13:12:11;5.33;;;2.30;;
11642;SDS011;5877;50.930;6.918;2023-09-30T13:17:05;4.40;;;2.10;;
11642;SDS011;5877;50.930;6.918;2023-09-30T13:22:00;4.47;;;2.30;;
11642;SDS011;5877;50.930;6.918;2023-09-30T13:27:10;5.40;;;3.13;;
11642;SDS011;5877;50.930;6.918;2023-09-30T13:32:09;4.87;;;2.17;;
11642;SDS011;5877;50.930;6.918;2023-09-30T13:37:01;5.57;;;2.30;;
11642;SDS011;5877;50.930;6.918;2023-09-30T13:41:54;6.30;;;3.10;;
11642;SDS011;5877;50.930;6.918;2023-09-30T13:46:47;7.87;;;2.80;;
11642;SDS011;5877;50.930;6.918;2023-09-30T13:51:39;4.30;;;1.67;;
11642;SDS011;5877;50.930;6.918;2023-09-30T13:56:32;4.67;;;2.30;;
11642;SDS011;5877;50.930;6.918;2023-09-30T14:01:24;3.40;;;2.10;;
11642;SDS011;5877;50.930;6.918;2023-09-30T14:06:17;4.27;;;2.77;;
11642;SDS011;5877;50.930;6.918;2023-09-30T14:11:09;4.33;;;1.73;;
11642;SDS011;5877;50.930;6.918;2023-09-30T14:16:08;5.83;;;2.00;;
11642;SDS011;5877;50.930;6.918;2023-09-30T14:21:02;4.80;;;2.27;;
11642;SDS011;5877;50.930;6.918;2023-09-30T14:25:56;4.10;;;2.07;;
11642;SDS011;5877;50.930;6.918;2023-09-30T14:30:48;5.80;;;2.77;;
11642;SDS011;5877;50.930;6.918;2023-09-30T14:35:44;2.93;;;2.27;;
11642;SDS011;5877;50.930;6.918;2023-09-30T14:40:37;4.10;;;2.40;;
11642;SDS011;5877;50.930;6.918;2023-09-30T14:45:36;4.20;;;2.33;;
11642;SDS011;5877;50.930;6.918;2023-09-30T14:50:31;5.87;;;2.47;;
11642;SDS011;5877;50.930;6.918;2023-09-30T14:55:24;4.50;;;2.37;;
11642;SDS011;5877;50.930;6.918;2023-09-30T15:00:17;4.50;;;2.37;;
11642;SDS011;5877;50.930;6.918;2023-09-30T15:05:10;6.00;;;2.40;;
11642;SDS011;5877;50.930;6.918;2023-09-30T15:10:02;5.80;;;2.17;;
11642;SDS011;5877;50.930;6.918;2023-09-30T15:14:56;7.97;;;2.90;;
11642;SDS011;5877;50.930;6.918;2023-09-30T15:19:48;5.13;;;2.53;;
11642;SDS011;5877;50.930;6.918;2023-09-30T15:24:40;5.33;;;2.53;;
11642;SDS011;5877;50.930;6.918;2023-09-30T15:29:33;7.70;;;2.57;;
11642;SDS011;5877;50.930;6.918;2023-09-30T15:34:25;4.00;;;2.33;;
11642;SDS011;5877;50.930;6.918;2023-09-30T15:39:18;4.20;;;2.13;;
11642;SDS011;5877;50.930;6.918;2023-09-30T15:44:11;5.10;;;2.57;;
11642;SDS011;5877;50.930;6.918;2023-09-30T15:49:03;5.80;;;2.40;;
11642;SDS011;5877;50.930;6.918;2023-09-30T15:53:56;7.07;;;3.10;;
11642;SDS011;5877;50.930;6.918;2023-09-30T15:58:50;5.23;;;2.50;;
11642;SDS011;5877;50.930;6.918;2023-09-30T16:03:42;4.90;;;2.60;;
11642;SDS011;5877;50.930;6.918;2023-09-30T16:08:35;3.63;;;2.17;;
11642;SDS011;5877;50.930;6.918;2023-09-30T16:13:29;4.63;;;2.60;;
11642;SDS011;5877;50.930;6.918;2023-09-30T16:18:23;5.57;;;2.70;;
11642;SDS011;5877;50.930;6.918;2023-09-30T16:23:15;4.97;;;2.87;;
11642;SDS011;5877;50.930;6.918;2023-09-30T16:28:08;5.20;;;2.50;;
11642;SDS011;5877;50.930;6.918;2023-09-30T16:33:00;5.13;;;2.43;;
11642;SDS011;5877;50.930;6.918;2023-09-30T16:37:53;4.30;;;2.73;;
11642;SDS011;5877;50.930;6.918;2023-09-30T16:42:46;5.63;;;2.67;;
11642;SDS011;5877;50.930;6.918;2023-09-30T16:47:39;4.37;;;2.57;;
11642;SDS011;5877;50.930;6.918;2023-09-30T16:52:31;5.77;;;2.87;;
11642;SDS011;5877;50.930;6.918;2023-09-30T16:57:23;5.33;;;3.50;;
11642;SDS011;5877;50.930;6.918;2023-09-30T17:02:17;6.20;;;3.40;;
11642;SDS011;5877;50.930;6.918;2023-09-30T17:07:11;4.73;;;3.33;;
11642;SDS011;5877;50.930;6.918;2023-09-30T17:12:04;5.37;;;3.50;;
11642;SDS011;5877;50.930;6.918;2023-09-30T17:16:57;5.73;;;3.77;;
